Time;durP1;ratioP1;P1;durP2;ratioP2;P2;SDS_P1;SDS_P2;PMS_P1;PMS_P2;Temp;Humidity;BMP_temperature;BMP_pressure;BME280_temperature;BME280_humidity;BME280_pressure;Samples;Min_cycle;Max_cycle;Signal;HPM_P1;HPM_P2
2021/12/14 00:01:31;;;;;;;17.27;11.05;;;;;;;;;;5031081;28;20534;-57
2021/12/14 00:04:02;;;;;;;16.42;11.48;;;8.30;99.90;;;;;;5046770;28;20053;-57
2021/12/14 00:06:28;;;;;;;17.05;10.32;;;;;;;;;;5049353;28;20438;-59
2021/12/14 00:08:57;;;;;;;16.85;10.85;;;;;;;;;;5050663;28;20546;-58
2021/12/14 00:11:52;;;;;;;16.38;10.82;;;;;;;;;;5049186;28;20398;-58
2021/12/14 00:16:49;;;;;;;17.15;11.32;;;;;;;;;;5048971;28;20662;-59
2021/12/14 00:19:17;;;;;;;16.55;10.45;;;9.10;99.90;;;;;;5049052;28;20033;-57
2021/12/14 00:21:49;;;;;;;19.15;10.88;;;;;;;;;;5050477;28;20051;-58
2021/12/14 00:24:15;;;;;;;17.33;11.18;;;;;;;;;;5031924;28;20469;-57
2021/12/14 00:26:49;;;;;;;16.95;10.57;;;;;;;;;;5075439;23;20044;-73
2021/12/14 00:29:26;;;;;;;16.33;10.73;;;8.90;99.90;;;;;;5045170;28;20086;-73
2021/12/14 00:31:54;;;;;;;18.10;11.15;;;;;;;;;;5071399;28;20192;-73
2021/12/14 00:34:35;;;;;;;19.33;11.85;;;;;;;;;;5072006;28;20066;-73
2021/12/14 00:37:01;;;;;;;17.70;10.93;;;;;;;;;;5071647;28;20071;-72
2021/12/14 00:39:27;;;;;;;17.40;11.60;;;;;;;;;;5069379;28;20036;-73
2021/12/14 00:41:53;;;;;;;17.23;10.55;;;;;;;;;;5072498;28;20379;-72
2021/12/14 00:44:21;;;;;;;18.98;11.13;;;;;;;;;;5071175;28;20130;-73
2021/12/14 00:46:47;;;;;;;18.05;11.60;;;;;;;;;;5071386;28;20067;-73
2021/12/14 00:49:13;;;;;;;15.30;10.40;;;;;;;;;;5072553;28;20075;-73
2021/12/14 00:51:39;;;;;;;18.38;11.07;;;;;;;;;;5069964;28;20354;-73
2021/12/14 00:54:09;;;;;;;18.60;11.80;;;;;;;;;;5071837;28;20048;-73
2021/12/14 00:56:36;;;;;;;20.40;12.85;;;;;;;;;;5055192;28;20032;-73
2021/12/14 00:59:04;;;;;;;19.05;11.48;;;8.10;99.90;;;;;;5090427;28;20044;-73
2021/12/14 01:01:32;;;;;;;18.27;12.13;;;;;;;;;;5068450;28;20123;-73
2021/12/14 01:04:00;;;;;;;19.02;12.70;;;;;;;;;;5069458;28;20089;-73
2021/12/14 01:06:29;;;;;;;19.35;11.35;;;;;;;;;;5057804;28;20312;-73
2021/12/14 01:08:55;;;;;;;19.83;12.50;;;;;;;;;;5076082;28;20457;-73
2021/12/14 01:11:38;;;;;;;21.90;13.43;;;8.60;99.90;;;;;;5076202;28;20092;-73
2021/12/14 01:14:11;;;;;;;21.98;14.07;;;;;;;;;;5072798;28;20036;-73
2021/12/14 01:16:51;;;;;;;23.75;14.68;;;8.80;99.90;;;;;;5072220;28;20048;-73
2021/12/14 01:19:24;;;;;;;19.45;12.57;;;;;;;;;;5076160;28;20052;-73
2021/12/14 01:25:19;;;;;;;22.33;14.63;;;;;;;;;;5075865;28;20047;-73
2021/12/14 01:27:25;;;;;;;21.77;14.43;;;;;;;;;;5060235;28;20048;-73
2021/12/14 01:29:54;;;;;;;24.00;14.45;;;;;;;;;;5077239;28;20040;-73
2021/12/14 01:32:23;;;;;;;20.95;14.02;;;;;;;;;;5076182;28;20123;-73
2021/12/14 01:34:49;;;;;;;21.17;13.95;;;8.60;99.90;;;;;;5073752;28;20055;-73
2021/12/14 01:37:20;;;;;;;20.55;13.02;;;8.60;99.90;;;;;;5091618;28;20036;-73
2021/12/14 01:40:00;;;;;;;24.15;14.68;;;;;;;;;;5058922;28;20403;-73
2021/12/14 01:42:27;;;;;;;22.38;15.00;;;;;;;;;;5053104;28;20490;-73
2021/12/14 01:45:08;;;;;;;20.92;14.32;;;8.90;99.90;;;;;;5073704;28;20036;-73
2021/12/14 01:47:38;;;;;;;20.55;13.65;;;8.90;99.90;;;;;;5074076;28;20040;-73
2021/12/14 01:50:07;;;;;;;22.52;15.70;;;;;;;;;;5058024;28;20048;-73
2021/12/14 01:52:34;;;;;;;23.08;14.82;;;;;;;;;;5074266;28;20040;-73
2021/12/14 01:55:20;;;;;;;26.20;16.27;;;;;;;;;;5074747;28;20032;-73
2021/12/14 01:57:47;;;;;;;24.20;14.43;;;;;;;;;;5057332;28;20082;-74
2021/12/14 02:00:23;;;;;;;23.63;14.85;;;8.60;99.90;;;;;;5093123;28;20105;-73
2021/12/14 02:02:49;;;;;;;22.55;14.85;;;8.40;99.90;;;;;;5090883;28;20052;-73
2021/12/14 02:05:26;;;;;;;27.23;15.95;;;;;;;;;;5074587;28;20459;-74
2021/12/14 02:07:54;;;;;;;23.85;15.55;;;8.20;99.90;;;;;;5073941;28;20035;-74
2021/12/14 02:10:30;;;;;;;23.65;15.15;;;8.60;99.90;;;;;;5074384;28;20047;-73
2021/12/14 02:12:57;;;;;;;26.55;16.25;;;;;;;;;;5074696;28;20032;-73
2021/12/14 02:15:26;;;;;;;21.98;14.38;;;;;;;;;;5073358;28;20040;-73
2021/12/14 02:17:53;;;;;;;24.58;15.00;;;8.50;99.90;;;;;;5073897;28;20036;-73
2021/12/14 02:20:25;;;;;;;24.55;15.75;;;7.80;99.90;;;;;;5092565;28;20505;-74
2021/12/14 02:22:52;;;;;;;25.13;16.38;;;;;;;;;;5074338;28;20631;-74
2021/12/14 02:25:18;;;;;;;21.75;15.25;;;8.70;99.90;;;;;;5063912;22;20049;-58
2021/12/14 02:27:46;;;;;;;25.58;16.13;;;;;;;;;;5011532;28;20511;-59
2021/12/14 02:30:14;;;;;;;25.13;15.40;;;;;;;;;;5011684;28;20037;-59
2021/12/14 02:32:41;;;;;;;23.80;15.40;;;;;;;;;;5011792;28;20518;-58
2021/12/14 02:35:10;;;;;;;22.85;14.43;;;8.70;99.90;;;;;;5011987;28;20071;-58
2021/12/14 02:37:42;;;;;;;24.92;15.68;;;;;;;;;;5011351;28;20034;-59
2021/12/14 02:40:20;;;;;;;23.58;15.18;;;8.30;99.90;;;;;;5011997;28;20061;-59
2021/12/14 02:42:47;;;;;;;24.05;16.25;;;;;;;;;;5011221;28;20495;-57
2021/12/14 02:45:13;;;;;;;26.80;16.05;;;;;;;;;;5010407;28;20042;-58
2021/12/14 02:47:39;;;;;;;26.25;16.80;;;;;;;;;;5012012;28;20040;-59
2021/12/14 02:50:07;;;;;;;23.35;14.80;;;;;;;;;;5011436;28;20632;-58
2021/12/14 02:52:36;;;;;;;24.15;16.55;;;;;;;;;;5012180;28;20049;-59
2021/12/14 02:55:08;;;;;;;26.85;16.23;;;;;;;;;;5010379;28;20085;-59
2021/12/14 02:57:37;;;;;;;25.55;16.42;;;8.40;99.90;;;;;;5010850;28;20931;-59
2021/12/14 03:00:14;;;;;;;25.17;16.33;;;8.90;99.90;;;;;;5011765;28;20042;-58
2021/12/14 03:02:41;;;;;;;25.48;16.73;;;8.60;99.90;;;;;;5009977;28;20053;-58
2021/12/14 03:05:09;;;;;;;30.35;18.30;;;;;;;;;;5011502;28;20112;-58
2021/12/14 03:07:40;;;;;;;24.27;17.15;;;;;;;;;;5011358;28;20037;-57
2021/12/14 03:10:20;;;;;;;27.10;18.25;;;;;;;;;;5011719;28;20046;-58
2021/12/14 03:12:49;;;;;;;27.25;17.58;;;;;;;;;;5011333;28;20092;-58
2021/12/14 03:15:26;;;;;;;28.20;16.80;;;;;;;;;;5010647;28;20040;-58
2021/12/14 03:17:54;;;;;;;24.10;16.77;;;;;;;;;;5011324;28;20073;-57
2021/12/14 03:20:25;;;;;;;27.75;17.77;;;8.20;99.90;;;;;;5015952;28;20046;-58
2021/12/14 03:22:55;;;;;;;27.33;17.58;;;;;;;;;;5012076;28;20038;-57
2021/12/14 03:25:22;;;;;;;27.08;17.15;;;;;;;;;;5010474;28;20042;-57
2021/12/14 03:27:51;;;;;;;29.60;18.67;;;8.00;99.90;;;;;;5008797;28;20443;-57
2021/12/14 03:30:20;;;;;;;29.50;18.50;;;;;;;;;;5022042;28;20033;-56
2021/12/14 03:32:46;;;;;;;30.90;16.98;;;;;;;;;;5014912;28;20125;-58
2021/12/14 03:35:12;;;;;;;25.83;16.58;;;;;;;;;;5029182;28;20033;-58
2021/12/14 03:37:39;;;;;;;30.88;18.73;;;8.70;99.90;;;;;;5020327;28;20092;-57
2021/12/14 03:40:06;;;;;;;33.78;20.67;;;8.80;99.90;;;;;;5020313;28;20048;-58
2021/12/14 03:42:37;;;;;;;28.80;18.92;;;;;;;;;;5016610;28;20045;-56
2021/12/14 03:45:08;;;;;;;35.67;21.58;;;7.70;99.90;;;;;;5012005;28;20052;-57
2021/12/14 03:47:44;;;;;;;36.03;21.95;;;7.90;99.90;;;;;;5010875;28;20129;-56
2021/12/14 03:50:17;;;;;;;35.88;22.25;;;7.70;99.90;;;;;;5010436;28;20509;-58
2021/12/14 03:52:44;;;;;;;36.90;23.63;;;;;;;;;;5010260;28;20610;-57
2021/12/14 03:55:23;;;;;;;40.05;23.33;;;7.90;99.90;;;;;;5010684;28;20543;-56
2021/12/14 03:57:49;;;;;;;37.72;23.08;;;;;;;;;;5010399;28;20034;-58
2021/12/14 04:00:21;;;;;;;40.38;24.45;;;;;;;;;;5009718;28;20041;-57
2021/12/14 04:02:48;;;;;;;38.92;23.23;;;;;;;;;;5010120;28;20042;-56
2021/12/14 04:05:14;;;;;;;37.95;25.23;;;;;;;;;;5010006;28;20050;-57
2021/12/14 04:07:42;;;;;;;41.50;24.05;;;;;;;;;;5010903;28;20038;-57
2021/12/14 04:10:17;;;;;;;41.80;26.20;;;7.70;99.90;;;;;;5010557;28;20041;-58
2021/12/14 04:12:43;;;;;;;40.15;26.08;;;;;;;;;;5009474;28;20041;-58
2021/12/14 04:15:09;;;;;;;38.20;24.25;;;8.10;99.90;;;;;;5009385;28;20037;-58
2021/12/14 04:17:35;;;;;;;42.10;26.52;;;8.10;99.90;;;;;;5010859;28;20364;-58
2021/12/14 04:20:01;;;;;;;45.17;25.92;;;;;;;;;;5009493;28;20499;-58
2021/12/14 04:22:32;;;;;;;42.40;24.92;;;8.60;99.90;;;;;;5010235;28;20046;-58
2021/12/14 04:25:01;;;;;;;40.72;24.85;;;;;;;;;;5010074;28;20104;-57
2021/12/14 04:27:29;;;;;;;40.25;24.70;;;;;;;;;;5009416;28;20400;-57
2021/12/14 04:29:56;;;;;;;41.65;25.85;;;;;;;;;;5003122;28;20037;-55
2021/12/14 04:32:22;;;;;;;42.47;27.13;;;8.60;99.90;;;;;;5013044;28;20132;-56
2021/12/14 04:34:49;;;;;;;46.00;26.50;;;7.40;99.90;;;;;;5011818;28;20036;-57
2021/12/14 04:37:16;;;;;;;44.88;27.33;;;8.00;99.90;;;;;;5017876;28;20033;-56
2021/12/14 04:39:47;;;;;;;49.72;28.52;;;;;;;;;;5009834;28;20046;-58
2021/12/14 04:53:43;;;;;;;47.55;25.98;;;7.90;99.90;;;;;;5003698;28;20440;-57
2021/12/14 04:56:11;;;;;;;43.45;26.98;;;;;;;;;;5009133;28;20399;-58
2021/12/14 04:58:39;;;;;;;45.15;27.25;;;;;;;;;;5010116;28;20035;-57
2021/12/14 05:01:08;;;;;;;47.80;27.63;;;8.20;99.90;;;;;;5009397;28;20041;-57
2021/12/14 05:03:36;;;;;;;50.75;28.15;;;;;;;;;;5009281;28;20519;-57
2021/12/14 05:06:16;;;;;;;47.83;26.30;;;;;;;;;;5009496;28;20065;-57
2021/12/14 05:11:41;;;;;;;49.17;28.17;;;;;;;;;;5009139;28;20046;-57
2021/12/14 05:14:10;;;;;;;44.67;26.10;;;;;;;;;;5010318;28;20049;-57
2021/12/14 05:16:37;;;;;;;53.55;27.60;;;;;;;;;;5009302;28;20133;-58
2021/12/14 05:19:04;;;;;;;49.88;28.40;;;;;;;;;;5009676;28;20125;-55
2021/12/14 05:21:51;;;;;;;51.95;30.02;;;7.80;99.90;;;;;;5009273;28;20065;-57
2021/12/14 05:24:19;;;;;;;51.22;29.75;;;;;;;;;;5009879;28;20049;-58
2021/12/14 05:26:48;;;;;;;53.42;30.27;;;8.00;99.90;;;;;;5008719;28;20415;-54
2021/12/14 05:29:14;;;;;;;54.08;29.67;;;;;;;;;;5009356;28;20046;-58
2021/12/14 05:31:42;;;;;;;53.92;32.15;;;;;;;;;;5008642;28;20042;-58
2021/12/14 05:34:08;;;;;;;55.13;32.90;;;;;;;;;;5008971;28;20166;-57
2021/12/14 05:36:34;;;;;;;55.90;32.78;;;;;;;;;;5013394;28;20076;-57
2021/12/14 05:39:16;;;;;;;58.47;32.72;;;;;;;;;;5024685;28;20042;-58
2021/12/14 05:44:19;;;;;;;69.97;37.13;;;;;;;;;;5000748;28;20125;-57
2021/12/14 05:46:50;;;;;;;65.33;33.27;;;7.80;99.90;;;;;;5005687;28;20202;-56
2021/12/14 05:49:26;;;;;;;66.72;36.70;;;8.20;99.90;;;;;;4999961;28;20507;-58
2021/12/14 05:51:53;;;;;;;67.70;35.22;;;;;;;;;;4997112;28;20034;-57
2021/12/14 05:54:21;;;;;;;69.47;36.78;;;;;;;;;;4994560;28;20039;-57
2021/12/14 05:56:47;;;;;;;63.42;37.10;;;;;;;;;;4994510;28;20116;-57
2021/12/14 05:59:18;;;;;;;68.53;36.42;;;7.70;99.90;;;;;;4992852;28;20034;-58
2021/12/14 06:01:44;;;;;;;66.30;35.95;;;;;;;;;;4998486;28;20038;-57
2021/12/14 06:04:11;;;;;;;73.20;37.65;;;;;;;;;;4995563;28;20084;-56
2021/12/14 06:06:43;;;;;;;76.35;39.85;;;7.20;99.90;;;;;;5004909;28;20042;-58
2021/12/14 06:09:21;;;;;;;71.85;38.00;;;8.00;99.90;;;;;;5012708;28;20180;-58
2021/12/14 06:11:49;;;;;;;66.95;37.00;;;;;;;;;;5019853;28;20034;-58
2021/12/14 06:14:20;;;;;;;71.80;38.65;;;;;;;;;;5004039;28;20512;-57
2021/12/14 06:16:47;;;;;;;74.15;40.13;;;;;;;;;;5026661;28;20065;-56
2021/12/14 06:19:27;;;;;;;80.68;42.38;;;;;;;;;;5014271;28;20102;-55
2021/12/14 06:21:55;;;;;;;79.32;41.75;;;;;;;;;;5013838;28;20210;-57
2021/12/14 06:24:26;;;;;;;75.32;39.53;;;8.40;99.90;;;;;;5011861;28;20125;-57
2021/12/14 06:26:53;;;;;;;73.90;40.53;;;;;;;;;;5027463;28;20048;-56
2021/12/14 06:29:24;;;;;;;83.95;42.67;;;;;;;;;;5031464;28;20045;-57
2021/12/14 06:31:51;;;;;;;80.72;42.25;;;8.00;99.90;;;;;;5019278;28;20455;-57
2021/12/14 06:34:20;;;;;;;73.70;37.45;;;;;;;;;;5012209;28;20053;-57
2021/12/14 06:36:51;;;;;;;76.25;39.35;;;;;;;;;;4993882;28;20121;-57
2021/12/14 06:39:18;;;;;;;85.53;40.85;;;;;;;;;;5010762;28;20508;-57
2021/12/14 06:41:44;;;;;;;85.03;42.45;;;;;;;;;;5005760;28;20037;-57
2021/12/14 06:44:10;;;;;;;92.90;43.78;;;;;;;;;;5008681;28;20499;-56
2021/12/14 06:46:37;;;;;;;79.10;41.95;;;;;;;;;;5009378;28;20040;-57
2021/12/14 06:49:11;;;;;;;86.88;42.67;;;;;;;;;;5002668;28;20446;-57
2021/12/14 06:51:40;;;;;;;90.85;42.72;;;7.70;99.90;;;;;;5010931;28;20033;-57
2021/12/14 06:54:12;;;;;;;89.82;42.50;;;;;;;;;;4997299;28;20050;-56
2021/12/14 06:56:38;;;;;;;84.38;41.35;;;;;;;;;;5010482;28;20504;-56
2021/12/14 06:59:09;;;;;;;87.43;43.00;;;;;;;;;;5010554;28;20061;-55
2021/12/14 07:01:37;;;;;;;81.70;41.85;;;;;;;;;;4998608;28;20079;-57
2021/12/14 07:04:06;;;;;;;92.10;44.05;;;;;;;;;;5007024;28;20107;-56
2021/12/14 07:06:32;;;;;;;96.28;43.10;;;;;;;;;;5010049;28;20038;-57
2021/12/14 07:09:24;;;;;;;93.97;44.53;;;;;;;;;;5010854;28;20112;-57
2021/12/14 07:12:01;;;;;;;97.07;45.05;;;;;;;;;;5000147;28;20141;-57
2021/12/14 07:14:27;;;;;;;106.82;45.28;;;;;;;;;;5001490;28;20038;-55
2021/12/14 07:17:01;;;;;;;86.13;39.08;;;8.00;99.90;;;;;;5004277;28;20117;-57
2021/12/14 07:19:42;;;;;;;94.88;44.40;;;;;;;;;;5004060;28;20395;-57
2021/12/14 07:22:33;;;;;;;98.72;45.85;;;7.90;99.90;;;;;;5016825;28;20064;-58
2021/12/14 07:25:00;;;;;;;103.05;45.22;;;;;;;;;;5009631;28;20121;-57
2021/12/14 07:27:30;;;;;;;90.82;43.67;;;;;;;;;;5011122;28;20030;-57
2021/12/14 07:30:34;;;;;;;93.05;44.38;;;8.60;99.90;;;;;;5011957;28;20034;-55
2021/12/14 07:33:02;;;;;;;97.57;44.90;;;7.90;99.90;;;;;;4993245;28;20420;-57
2021/12/14 07:35:34;;;;;;;97.38;45.10;;;;;;;;;;5010785;28;20038;-57
2021/12/14 07:38:16;;;;;;;106.85;48.40;;;;;;;;;;5010652;28;20037;-56
2021/12/14 07:40:45;;;;;;;103.15;46.15;;;8.20;99.90;;;;;;5011419;28;20060;-56
2021/12/14 07:43:11;;;;;;;97.35;47.70;;;;;;;;;;5010933;28;20044;-57
2021/12/14 07:45:37;;;;;;;94.35;46.00;;;;;;;;;;5010503;28;20037;-55
2021/12/14 07:48:03;;;;;;;109.53;47.58;;;;;;;;;;5011866;28;20041;-56
2021/12/14 07:50:48;;;;;;;107.45;49.40;;;;;;;;;;5009724;28;20477;-56
2021/12/14 07:53:14;;;;;;;111.38;49.20;;;;;;;;;;5010245;28;20034;-56
2021/12/14 07:55:43;;;;;;;102.75;45.38;;;;;;;;;;5003393;28;20050;-57
2021/12/14 07:58:10;;;;;;;101.55;47.10;;;7.80;99.90;;;;;;4997841;28;20053;-57
2021/12/14 08:00:40;;;;;;;110.43;45.03;;;;;;;;;;5004700;28;20144;-58
2021/12/14 08:03:08;;;;;;;100.07;45.28;;;7.60;99.90;;;;;;4999787;28;20042;-58
2021/12/14 08:05:36;;;;;;;97.07;44.65;;;;;;;;;;4997803;28;20080;-58
2021/12/14 08:08:09;;;;;;;110.93;46.20;;;;;;;;;;4994233;28;20048;-59
2021/12/14 08:10:38;;;;;;;103.45;43.05;;;;;;;;;;4991771;28;20560;-58
2021/12/14 08:13:27;;;;;;;100.65;46.47;;;7.90;99.90;;;;;;5007328;28;20046;-57
2021/12/14 08:15:59;;;;;;;90.80;40.65;;;8.30;99.90;;;;;;5010718;28;20088;-57
2021/12/14 08:18:28;;;;;;;98.28;42.10;;;;;;;;;;5010760;28;20511;-58
2021/12/14 08:20:58;;;;;;;96.78;41.80;;;8.40;99.90;;;;;;5010731;28;20069;-58
2021/12/14 08:23:30;;;;;;;93.07;40.80;;;8.00;99.90;;;;;;5001085;28;20049;-58
2021/12/14 08:26:07;;;;;;;101.70;41.20;;;8.30;99.90;;;;;;4988616;28;20049;-56
2021/12/14 08:28:53;;;;;;;93.60;41.67;;;;;;;;;;4988895;28;20582;-57
2021/12/14 08:31:21;;;;;;;95.75;41.45;;;;;;;;;;4988218;28;20042;-59
2021/12/14 08:33:54;;;;;;;104.78;44.30;;;;;;;;;;4989149;28;20459;-58
2021/12/14 08:36:20;;;;;;;102.13;43.33;;;;;;;;;;4999266;28;20042;-59
2021/12/14 08:38:46;;;;;;;101.35;42.78;;;;;;;;;;4995116;28;20378;-59
2021/12/14 08:41:20;;;;;;;97.93;43.92;;;;;;;;;;4990875;28;20088;-57
2021/12/14 08:43:52;;;;;;;108.25;43.65;;;;;;;;;;4990848;28;20125;-58
2021/12/14 08:46:23;;;;;;;99.90;41.13;;;8.10;99.90;;;;;;4990186;28;20078;-59
2021/12/14 08:48:55;;;;;;;108.82;46.05;;;;;;;;;;4997495;28;20038;-58
2021/12/14 08:51:31;;;;;;;106.13;43.42;;;8.50;99.90;;;;;;5010435;28;20073;-59
2021/12/14 08:54:00;;;;;;;103.47;42.95;;;;;;;;;;5008878;28;20094;-57
2021/12/14 08:56:28;;;;;;;111.70;43.72;;;8.90;99.90;;;;;;5010278;28;20100;-58
2021/12/14 08:58:54;;;;;;;91.85;39.70;;;;;;;;;;5010284;28;20496;-57
2021/12/14 09:01:22;;;;;;;103.13;42.58;;;;;;;;;;5010644;28;20046;-59
2021/12/14 09:03:55;;;;;;;112.82;45.40;;;8.90;99.90;;;;;;5010391;28;20052;-57
2021/12/14 09:06:23;;;;;;;111.95;42.33;;;;;;;;;;5010262;28;20042;-59
2021/12/14 09:08:51;;;;;;;107.28;41.15;;;;;;;;;;5010297;28;20037;-59
2021/12/14 09:11:21;;;;;;;113.88;44.95;;;8.30;99.90;;;;;;5009948;28;20105;-59
2021/12/14 09:13:47;;;;;;;112.18;44.30;;;;;;;;;;5010473;28;20088;-58
2021/12/14 09:16:18;;;;;;;103.13;42.92;;;8.50;99.90;;;;;;5009647;28;20073;-55
2021/12/14 09:18:49;;;;;;;98.68;42.10;;;8.50;99.90;;;;;;5010387;28;20037;-59
2021/12/14 09:21:22;;;;;;;110.30;42.85;;;8.00;99.90;;;;;;5008012;28;20037;-57
2021/12/14 09:23:50;;;;;;;115.70;44.78;;;;;;;;;;4997451;28;20109;-56
2021/12/14 09:26:18;;;;;;;96.68;42.40;;;;;;;;;;5010370;28;20045;-58
2021/12/14 09:28:44;;;;;;;101.57;41.85;;;;;;;;;;5005488;28;20042;-58
2021/12/14 09:31:13;;;;;;;103.75;41.60;;;;;;;;;;5013047;28;20050;-56
2021/12/14 09:33:40;;;;;;;104.15;43.95;;;8.50;99.90;;;;;;5013907;28;20041;-57
2021/12/14 09:36:12;;;;;;;106.03;44.05;;;9.00;99.90;;;;;;5014134;28;20042;-58
2021/12/14 09:38:40;;;;;;;96.07;40.58;;;;;;;;;;5013503;28;20044;-58
2021/12/14 09:41:08;;;;;;;97.63;40.28;;;;;;;;;;5014357;28;20045;-59
2021/12/14 09:43:35;;;;;;;92.65;39.65;;;8.40;99.90;;;;;;5012504;28;20096;-57
2021/12/14 09:46:02;;;;;;;96.95;39.55;;;;;;;;;;5013061;28;20045;-58
2021/12/14 09:48:36;;;;;;;104.03;40.50;;;;;;;;;;5008968;28;20038;-57
2021/12/14 09:51:07;;;;;;;90.82;36.72;;;;;;;;;;5004049;28;20043;-59
2021/12/14 09:53:34;;;;;;;104.20;39.55;;;;;;;;;;5002110;28;20124;-57
2021/12/14 09:56:00;;;;;;;93.75;38.97;;;8.00;99.90;;;;;;4996894;28;20543;-59
2021/12/14 09:58:28;;;;;;;101.35;40.75;;;;;;;;;;4992469;28;20117;-57
2021/12/14 10:01:00;;;;;;;122.95;41.05;;;9.00;99.90;;;;;;4992873;28;20103;-59
2021/12/14 10:03:26;;;;;;;101.25;40.05;;;;;;;;;;4993883;28;20065;-59
2021/12/14 10:05:55;;;;;;;110.38;43.85;;;;;;;;;;4993578;28;20428;-59
2021/12/14 10:08:30;;;;;;;104.25;39.20;;;8.80;99.90;;;;;;4997578;28;20677;-59
2021/12/14 10:11:05;;;;;;;101.13;39.90;;;;;;;;;;4998151;28;20042;-59
2021/12/14 10:13:34;;;;;;;88.00;38.22;;;8.60;99.90;;;;;;5006277;28;20048;-59
2021/12/14 10:16:00;;;;;;;95.45;39.92;;;;;;;;;;5012710;28;20038;-58
2021/12/14 10:18:31;;;;;;;109.03;41.80;;;;;;;;;;5009204;28;20030;-59
2021/12/14 10:21:01;;;;;;;94.75;39.67;;;;;;;;;;5004129;28;20526;-59
2021/12/14 10:23:28;;;;;;;85.63;34.85;;;;;;;;;;5008996;28;20037;-59
2021/12/14 10:25:55;;;;;;;90.13;37.80;;;;;;;;;;5002185;28;20088;-59
2021/12/14 10:28:23;;;;;;;87.72;37.80;;;;;;;;;;5000614;28;20405;-59
2021/12/14 10:30:58;;;;;;;93.07;38.00;;;9.00;99.90;;;;;;5001169;28;20065;-57
2021/12/14 10:33:27;;;;;;;93.57;36.58;;;8.70;99.90;;;;;;5004563;28;20515;-59
2021/12/14 10:35:57;;;;;;;94.72;38.30;;;;;;;;;;5012857;28;20446;-57
2021/12/14 10:38:34;;;;;;;87.30;36.15;;;;;;;;;;5013006;28;20045;-58
2021/12/14 10:43:53;;;;;;;73.22;32.80;;;8.60;99.90;;;;;;5012969;28;20138;-58
2021/12/14 10:46:30;;;;;;;69.30;31.60;;;8.20;99.90;;;;;;5010863;28;20073;-58
2021/12/14 10:48:57;;;;;;;66.97;31.10;;;8.70;99.90;;;;;;5007483;28;20048;-55
2021/12/14 10:51:26;;;;;;;72.47;32.00;;;9.00;99.90;;;;;;5011754;28;20128;-57
2021/12/14 10:53:54;;;;;;;74.25;31.13;;;8.80;99.90;;;;;;5012712;28;20046;-58
2021/12/14 10:56:25;;;;;;;67.45;29.25;;;8.30;99.90;;;;;;5011443;28;20030;-58
2021/12/14 10:58:53;;;;;;;65.20;29.38;;;;;;;;;;5012601;28;20570;-58
2021/12/14 11:01:27;;;;;;;71.78;31.30;;;;;;;;;;5011853;28;20536;-58
2021/12/14 11:03:56;;;;;;;67.97;29.83;;;;;;;;;;5011855;28;20057;-55
2021/12/14 11:06:27;;;;;;;79.68;29.23;;;;;;;;;;5011489;28;20049;-57
2021/12/14 11:11:35;;;;;;;68.45;29.10;;;;;;;;;;5011854;28;20129;-58
2021/12/14 11:14:03;;;;;;;68.47;29.25;;;;;;;;;;5011551;28;20113;-57
2021/12/14 11:19:44;;;;;;;58.03;25.95;;;8.70;99.90;;;;;;4980878;28;20041;-58
2021/12/14 11:22:11;;;;;;;58.40;24.80;;;;;;;;;;5011499;28;20045;-58
2021/12/14 11:24:38;;;;;;;81.93;30.05;;;;;;;;;;5010340;28;20054;-56
2021/12/14 11:27:14;;;;;;;56.15;23.83;;;9.10;99.90;;;;;;5011181;28;20503;-57
2021/12/14 11:29:40;;;;;;;49.90;22.50;;;9.00;99.90;;;;;;5011549;28;20078;-55
2021/12/14 11:32:07;;;;;;;48.15;21.65;;;9.10;99.90;;;;;;5010763;28;20042;-56
2021/12/14 11:34:36;;;;;;;46.75;20.10;;;9.40;99.90;;;;;;5009757;28;20061;-56
2021/12/14 11:37:07;;;;;;;42.83;20.08;;;;;;;;;;5011110;28;20045;-54
2021/12/14 11:39:41;;;;;;;38.60;19.10;;;9.00;99.90;;;;;;5011521;28;20049;-56
2021/12/14 11:42:10;;;;;;;42.27;19.93;;;;;;;;;;5011379;28;20168;-57
2021/12/14 11:44:45;;;;;;;53.08;23.35;;;9.20;99.90;;;;;;4998043;28;20408;-56
2021/12/14 11:47:22;;;;;;;;;;;;;;;;;;5000379;28;20065;-57
2021/12/14 11:50:06;;;;;;;48.30;21.70;;;;;;;;;;5006075;28;20070;-56
2021/12/14 11:52:36;;;;;;;42.65;20.67;;;;;;;;;;5011406;28;20104;-57
2021/12/14 11:55:16;;;;;;;45.50;20.67;;;;;;;;;;5010412;28;20042;-56
2021/12/14 11:57:42;;;;;;;40.45;18.77;;;;;;;;;;5011321;28;20121;-54
2021/12/14 12:00:10;;;;;;;36.92;16.65;;;;;;;;;;5010872;28;20038;-56
2021/12/14 12:02:35;;;;;;;43.45;17.98;;;9.20;99.90;;;;;;5010443;28;20511;-56
2021/12/14 12:05:13;;;;;;;35.15;16.85;;;;;;;;;;5010693;28;20113;-53
2021/12/14 12:10:35;;;;;;;40.75;16.88;;;;;;;;;;5011158;28;20412;-55
2021/12/14 12:13:01;;;;;;;35.25;15.35;;;;;;;;;;5010374;28;20042;-57
2021/12/14 12:15:27;;;;;;;31.73;16.98;;;9.40;99.90;;;;;;5010816;28;20038;-58
2021/12/14 12:17:58;;;;;;;30.48;14.82;;;;;;;;;;5010411;28;20044;-57
2021/12/14 12:20:26;;;;;;;31.58;14.73;;;;;;;;;;5011039;28;20050;-56
2021/12/14 12:22:55;;;;;;;33.13;14.77;;;;;;;;;;5010515;28;20046;-58
2021/12/14 12:27:58;;;;;;;31.77;14.10;;;;;;;;;;5039296;22;20068;-69
2021/12/14 12:30:46;;;;;;;34.15;14.45;;;9.10;99.90;;;;;;5035548;28;20045;-70
2021/12/14 12:33:18;;;;;;;33.40;14.35;;;;;;;;;;5013903;28;20568;-70
2021/12/14 12:35:51;;;;;;;30.25;14.13;;;9.90;99.90;;;;;;5020075;28;20148;-70
2021/12/14 12:38:26;;;;;;;35.00;13.55;;;;;;;;;;5023394;28;20133;-70
2021/12/14 12:40:54;;;;;;;43.00;15.85;;;;;;;;;;5018331;28;20049;-69
2021/12/14 12:43:23;;;;;;;40.08;14.95;;;;;;;;;;5042787;28;20479;-70
2021/12/14 12:45:56;;;;;;;40.33;17.33;;;;;;;;;;5047465;28;20502;-71
2021/12/14 12:48:44;;;;;;;45.80;17.05;;;9.20;99.90;;;;;;5043288;28;20060;-70
2021/12/14 12:51:11;;;;;;;42.15;17.48;;;;;;;;;;5015280;28;20040;-71
2021/12/14 12:53:37;;;;;;;33.92;15.05;;;;;;;;;;5024637;28;20082;-70
2021/12/14 12:56:04;;;;;;;39.40;16.65;;;;;;;;;;5049533;28;20045;-70
2021/12/14 12:58:30;;;;;;;40.88;16.00;;;;;;;;;;5032262;28;20505;-70
2021/12/14 13:00:58;;;;;;;37.40;16.13;;;;;;;;;;5054280;28;20103;-70
2021/12/14 13:03:35;;;;;;;39.53;18.10;;;;;;;;;;5054387;28;20124;-70
2021/12/14 13:06:01;;;;;;;35.10;16.55;;;;;;;;;;5053491;28;20437;-70
2021/12/14 13:08:40;;;;;;;41.28;17.55;;;;;;;;;;5035938;28;20131;-70
2021/12/14 13:11:11;;;;;;;39.38;16.30;;;;;;;;;;5036178;28;20037;-70
2021/12/14 13:13:41;;;;;;;41.40;17.02;;;;;;;;;;5019651;28;20037;-70
2021/12/14 13:16:26;;;;;;;34.67;14.82;;;9.90;99.90;;;;;;5053427;28;20498;-70
2021/12/14 13:19:11;;;;;;;34.83;15.38;;;;;;;;;;5053670;28;20457;-70
2021/12/14 13:22:00;;;;;;;33.53;15.00;;;9.90;99.90;;;;;;5017565;28;20103;-69
2021/12/14 13:24:28;;;;;;;38.65;13.98;;;;;;;;;;5046110;28;20036;-70
2021/12/14 13:26:57;;;;;;;33.47;15.35;;;;;;;;;;5021336;28;20091;-69
2021/12/14 13:29:28;;;;;;;33.15;14.70;;;;;;;;;;5042926;28;20083;-69
2021/12/14 13:31:57;;;;;;;33.45;13.93;;;;;;;;;;5020843;28;20072;-71
2021/12/14 13:34:32;;;;;;;32.63;14.05;;;9.40;99.90;;;;;;5026811;28;20033;-71
2021/12/14 13:36:59;;;;;;;31.60;13.32;;;;;;;;;;5035194;28;20045;-71
2021/12/14 13:39:26;;;;;;;32.40;13.65;;;9.30;99.90;;;;;;5053731;28;20120;-70
2021/12/14 13:42:07;;;;;;;26.48;10.93;;;;;;;;;;5050956;28;20041;-71
2021/12/14 13:44:39;;;;;;;33.20;14.63;;;9.50;99.90;;;;;;5051871;28;20083;-71
2021/12/14 13:47:08;;;;;;;27.20;13.40;;;10.20;99.90;;;;;;5053625;28;20437;-70
2021/12/14 13:49:35;;;;;;;28.63;12.80;;;;;;;;;;5035870;28;20048;-71
2021/12/14 13:52:02;;;;;;;28.80;12.93;;;9.90;99.90;;;;;;5035065;28;20110;-71
2021/12/14 13:54:28;;;;;;;25.05;12.60;;;;;;;;;;5034783;28;20529;-71
2021/12/14 13:56:54;;;;;;;26.50;12.07;;;;;;;;;;5035348;28;20037;-72
2021/12/14 13:59:20;;;;;;;29.95;12.00;;;;;;;;;;5035255;28;20041;-70
2021/12/14 14:01:50;;;;;;;26.40;12.35;;;;;;;;;;5036086;28;20528;-70
2021/12/14 14:04:18;;;;;;;21.48;10.98;;;;;;;;;;5034828;28;20052;-69
2021/12/14 14:06:45;;;;;;;27.38;11.85;;;9.80;99.90;;;;;;5053386;28;20417;-69
2021/12/14 14:09:14;;;;;;;25.55;11.75;;;;;;;;;;5053095;28;20033;-69
2021/12/14 14:11:45;;;;;;;30.42;12.88;;;9.30;99.90;;;;;;5051785;28;20128;-69
2021/12/14 14:14:20;;;;;;;30.50;13.88;;;;;;;;;;5053179;28;20115;-69
2021/12/14 14:16:57;;;;;;;29.80;13.00;;;;;;;;;;5053092;28;20410;-69
2021/12/14 14:19:25;;;;;;;30.27;13.00;;;;;;;;;;5035252;28;20383;-70
2021/12/14 14:22:01;;;;;;;32.95;14.63;;;9.10;99.90;;;;;;5052563;28;20040;-69
2021/12/14 14:24:29;;;;;;;34.20;14.20;;;;;;;;;;5034778;28;20583;-70
2021/12/14 14:26:55;;;;;;;38.83;16.60;;;;;;;;;;5050648;22;20235;-56
2021/12/14 14:29:22;;;;;;;34.72;15.30;;;;;;;;;;5013186;28;20038;-56
2021/12/14 14:31:50;;;;;;;38.92;15.95;;;;;;;;;;5012510;28;20037;-56
2021/12/14 14:34:29;;;;;;;31.17;15.25;;;;;;;;;;5012491;28;20077;-58
2021/12/14 14:37:00;;;;;;;37.42;15.63;;;;;;;;;;5032723;28;20095;-57